Ofertas de vuelos a Natal

Encontranos en
En el mes de
SalidaRegresoDíasConexionesDisp.
Mar 10/03/20202020-03-10Vie 20/03/20202020-03-2010ConexionesVer disponibilidad>03https://an.despegar.com/ad/1040?q=shop%2Fflights%2Fresults%2Froundtrip%2FBUE%2FNAT%2F2020-03-10%2F2020-03-20%2F1%2F0%2F0
Mar 10/03/20202020-03-10Jue 19/03/20202020-03-199ConexionesVer disponibilidad>03https://an.despegar.com/ad/1040?q=shop%2Fflights%2Fresults%2Froundtrip%2FBUE%2FNAT%2F2020-03-10%2F2020-03-19%2F1%2F0%2F0
Sab 14/03/20202020-03-14Lun 30/03/20202020-03-3016ConexionesVer disponibilidad>03https://an.despegar.com/ad/1040?q=shop%2Fflights%2Fresults%2Froundtrip%2FBUE%2FNAT%2F2020-03-14%2F2020-03-30%2F1%2F0%2F0
Dom 15/03/20202020-03-15Lun 30/03/20202020-03-3015ConexionesVer disponibilidad>03https://an.despegar.com/ad/1040?q=shop%2Fflights%2Fresults%2Froundtrip%2FBUE%2FNAT%2F2020-03-15%2F2020-03-30%2F1%2F0%2F0
Jue 19/03/20202020-03-19Jue 26/03/20202020-03-267ConexionesVer disponibilidad>03https://an.despegar.com/ad/1040?q=shop%2Fflights%2Fresults%2Froundtrip%2FBUE%2FNAT%2F2020-03-19%2F2020-03-26%2F1%2F0%2F0
Dom 22/03/20202020-03-22Mar 31/03/20202020-03-319ConexionesVer disponibilidad>03https://an.despegar.com/ad/1040?q=shop%2Fflights%2Fresults%2Froundtrip%2FBUE%2FNAT%2F2020-03-22%2F2020-03-31%2F1%2F0%2F0
Mar 24/03/20202020-03-24Mar 31/03/20202020-03-317ConexionesVer disponibilidad>03https://an.despegar.com/ad/1040?q=shop%2Fflights%2Fresults%2Froundtrip%2FBUE%2FNAT%2F2020-03-24%2F2020-03-31%2F1%2F0%2F0
Mar 24/03/20202020-03-24Jue 02/04/20202020-04-029ConexionesVer disponibilidad>03https://an.despegar.com/ad/1040?q=shop%2Fflights%2Fresults%2Froundtrip%2FBUE%2FNAT%2F2020-03-24%2F2020-04-02%2F1%2F0%2F0
Sab 28/03/20202020-03-28Dom 05/04/20202020-04-058ConexionesVer disponibilidad>03https://an.despegar.com/ad/1040?q=shop%2Fflights%2Fresults%2Froundtrip%2FBUE%2FNAT%2F2020-03-28%2F2020-04-05%2F1%2F0%2F0
Mar 14/04/20202020-04-14Mie 22/04/20202020-04-228ConexionesVer disponibilidad>04https://an.despegar.com/ad/1040?q=shop%2Fflights%2Fresults%2Froundtrip%2FBUE%2FNAT%2F2020-04-14%2F2020-04-22%2F1%2F0%2F0
Jue 16/04/20202020-04-16Vie 24/04/20202020-04-248ConexionesVer disponibilidad>04https://an.despegar.com/ad/1040?q=shop%2Fflights%2Fresults%2Froundtrip%2FBUE%2FNAT%2F2020-04-16%2F2020-04-24%2F1%2F0%2F0
Sab 18/04/20202020-04-18Sab 25/04/20202020-04-257ConexionesVer disponibilidad>04https://an.despegar.com/ad/1040?q=shop%2Fflights%2Fresults%2Froundtrip%2FBUE%2FNAT%2F2020-04-18%2F2020-04-25%2F1%2F0%2F0
Vie 24/04/20202020-04-24Jue 30/04/20202020-04-306ConexionesVer disponibilidad>04https://an.despegar.com/ad/1040?q=shop%2Fflights%2Fresults%2Froundtrip%2FBUE%2FNAT%2F2020-04-24%2F2020-04-30%2F1%2F0%2F0
Dom 26/04/20202020-04-26Dom 10/05/20202020-05-1014ConexionesVer disponibilidad>04https://an.despegar.com/ad/1040?q=shop%2Fflights%2Fresults%2Froundtrip%2FBUE%2FNAT%2F2020-04-26%2F2020-05-10%2F1%2F0%2F0
Mar 28/04/20202020-04-28Mar 05/05/20202020-05-057ConexionesVer disponibilidad>04https://an.despegar.com/ad/1040?q=shop%2Fflights%2Fresults%2Froundtrip%2FBUE%2FNAT%2F2020-04-28%2F2020-05-05%2F1%2F0%2F0
Sab 02/05/20202020-05-02Jue 14/05/20202020-05-1412ConexionesVer disponibilidad>05https://an.despegar.com/ad/1040?q=shop%2Fflights%2Fresults%2Froundtrip%2FBUE%2FNAT%2F2020-05-02%2F2020-05-14%2F1%2F0%2F0
Jue 07/05/20202020-05-07Sab 16/05/20202020-05-169ConexionesVer disponibilidad>05https://an.despegar.com/ad/1040?q=shop%2Fflights%2Fresults%2Froundtrip%2FBUE%2FNAT%2F2020-05-07%2F2020-05-16%2F1%2F0%2F0
Jue 07/05/20202020-05-07Dom 17/05/20202020-05-1710ConexionesVer disponibilidad>05https://an.despegar.com/ad/1040?q=shop%2Fflights%2Fresults%2Froundtrip%2FBUE%2FNAT%2F2020-05-07%2F2020-05-17%2F1%2F0%2F0
Sab 16/05/20202020-05-16Dom 31/05/20202020-05-3115ConexionesVer disponibilidad>05https://an.despegar.com/ad/1040?q=shop%2Fflights%2Fresults%2Froundtrip%2FBUE%2FNAT%2F2020-05-16%2F2020-05-31%2F1%2F0%2F0
Sab 16/05/20202020-05-16Dom 24/05/20202020-05-248ConexionesVer disponibilidad>05https://an.despegar.com/ad/1040?q=shop%2Fflights%2Fresults%2Froundtrip%2FBUE%2FNAT%2F2020-05-16%2F2020-05-24%2F1%2F0%2F0
Mar 19/05/20202020-05-19Mar 02/06/20202020-06-0214ConexionesVer disponibilidad>05https://an.despegar.com/ad/1040?q=shop%2Fflights%2Fresults%2Froundtrip%2FBUE%2FNAT%2F2020-05-19%2F2020-06-02%2F1%2F0%2F0
Sab 23/05/20202020-05-23Dom 07/06/20202020-06-0715ConexionesVer disponibilidad>05https://an.despegar.com/ad/1040?q=shop%2Fflights%2Fresults%2Froundtrip%2FBUE%2FNAT%2F2020-05-23%2F2020-06-07%2F1%2F0%2F0
Lun 25/05/20202020-05-25Dom 31/05/20202020-05-316ConexionesVer disponibilidad>05https://an.despegar.com/ad/1040?q=shop%2Fflights%2Fresults%2Froundtrip%2FBUE%2FNAT%2F2020-05-25%2F2020-05-31%2F1%2F0%2F0
Lun 01/06/20202020-06-01Sab 20/06/20202020-06-2019ConexionesVer disponibilidad>06https://an.despegar.com/ad/1040?q=shop%2Fflights%2Fresults%2Froundtrip%2FBUE%2FNAT%2F2020-06-01%2F2020-06-20%2F1%2F0%2F0
Dom 28/06/20202020-06-28Dom 05/07/20202020-07-057ConexionesVer disponibilidad>06https://an.despegar.com/ad/1040?q=shop%2Fflights%2Fresults%2Froundtrip%2FBUE%2FNAT%2F2020-06-28%2F2020-07-05%2F1%2F0%2F0

Información general sobre Natal

Natal, que en español significa Navidad, es una ciudad brasileña localizada en el estado de Rio Grande do Norte. Atravesada por el río Potengi, la capital nordestina cuenta con playas, dunas y diferentes atracciones históricas. Anualmente recibe a dos millones de turistas y es la puerta de entrada hacia otros importantes destinos del estado.

Pasajes Aéreos y Vuelos Baratos a Natal

Descargá gratis nuestra nueva app para Android y iOS.
Suscribite a las notificaciones de Chrome y Safari.
Seguinos en Facebook, Twitter e Instagram
Suscribite a nuestro newsletter aquí.